createdAt,value
2022-11-09T00:00:47.641Z,100709.00
2022-11-09T00:03:20.928Z,100721.00
2022-11-09T00:06:01.867Z,100712.00
2022-11-09T00:08:35.311Z,100711.00
2022-11-09T00:11:09.481Z,100708.00
2022-11-09T00:13:46.950Z,100702.00
2022-11-09T00:16:24.655Z,100697.00
2022-11-09T00:18:57.916Z,100697.00
2022-11-09T00:21:31.110Z,100700.00
2022-11-09T00:24:04.162Z,100701.00
2022-11-09T00:26:36.982Z,100702.00
2022-11-09T00:29:10.066Z,100697.00
2022-11-09T00:31:42.956Z,100698.00
2022-11-09T00:34:16.563Z,100686.00
2022-11-09T00:36:49.397Z,100690.00
2022-11-09T00:39:22.742Z,100683.00
2022-11-09T00:41:55.799Z,100672.00
2022-11-09T00:44:33.085Z,100680.00
2022-11-09T00:47:06.496Z,100694.00
2022-11-09T00:49:39.315Z,100688.00
2022-11-09T00:52:12.372Z,100680.00
2022-11-09T00:54:45.464Z,100678.00
2022-11-09T00:57:18.979Z,100685.00
2022-11-09T00:59:52.048Z,100690.00
2022-11-09T01:02:25.271Z,100685.00
2022-11-09T01:04:58.226Z,100684.00
2022-11-09T01:07:31.223Z,100687.00
2022-11-09T01:10:04.197Z,100681.00
2022-11-09T01:12:37.093Z,100683.00
2022-11-09T01:15:14.909Z,100680.00
2022-11-09T01:17:47.952Z,100685.00
2022-11-09T01:20:21.183Z,100677.00
2022-11-09T01:22:54.089Z,100672.00
2022-11-09T01:25:27.156Z,100669.00
2022-11-09T01:28:01.308Z,100670.00
2022-11-09T01:30:34.438Z,100664.00
2022-11-09T01:33:11.765Z,100661.00
2022-11-09T01:35:44.910Z,100665.00
2022-11-09T01:38:17.734Z,100655.00
2022-11-09T01:40:50.582Z,100657.00
2022-11-09T01:43:25.352Z,100655.00
2022-11-09T01:46:09.161Z,100655.00
2022-11-09T01:48:45.040Z,100653.00
2022-11-09T01:51:19.994Z,100650.00
2022-11-09T01:53:55.014Z,100645.00
2022-11-09T01:56:28.764Z,100646.00
2022-11-09T01:59:09.222Z,100641.00
2022-11-09T02:01:42.249Z,100643.00
2022-11-09T02:04:19.632Z,100630.00
2022-11-09T02:06:54.036Z,100628.00
2022-11-09T02:09:28.937Z,100624.00
2022-11-09T02:12:02.091Z,100620.00
2022-11-09T02:14:36.202Z,100614.00
2022-11-09T02:17:09.176Z,100612.00
2022-11-09T02:19:42.123Z,100616.00
2022-11-09T02:22:15.194Z,100615.00
2022-11-09T02:24:50.008Z,100609.00
2022-11-09T02:27:22.977Z,100611.00
2022-11-09T02:29:56.854Z,100604.00
2022-11-09T02:32:31.563Z,100601.00
2022-11-09T02:35:04.481Z,100604.00
2022-11-09T02:37:45.236Z,100601.00
2022-11-09T02:40:29.347Z,100588.00
2022-11-09T02:46:14.990Z,100595.00
2022-11-09T02:48:48.453Z,100602.00
2022-11-09T02:51:21.472Z,100604.00
2022-11-09T02:53:54.242Z,100593.00
2022-11-09T02:56:27.164Z,100593.00
2022-11-09T02:59:00.048Z,100586.00
2022-11-09T03:01:33.475Z,100593.00
2022-11-09T03:04:06.562Z,100581.00
2022-11-09T03:06:39.570Z,100580.00
2022-11-09T03:09:13.902Z,100582.00
2022-11-09T03:11:47.198Z,100581.00
2022-11-09T03:14:20.227Z,100582.00
2022-11-09T03:16:53.127Z,100570.00
2022-11-09T03:19:30.213Z,100578.00
2022-11-09T03:22:02.859Z,100581.00
2022-11-09T03:24:35.706Z,100568.00
2022-11-09T03:27:08.913Z,100568.00
2022-11-09T03:29:42.032Z,100563.00
2022-11-09T03:32:15.475Z,100565.00
2022-11-09T03:34:48.472Z,100568.00
2022-11-09T03:37:24.645Z,100559.00
2022-11-09T03:39:57.891Z,100560.00
2022-11-09T03:42:36.511Z,100548.00
2022-11-09T03:45:12.188Z,100555.00
2022-11-09T03:47:56.223Z,100559.00
2022-11-09T03:50:40.091Z,100564.00
2022-11-09T03:53:14.754Z,100562.00
2022-11-09T03:55:49.521Z,100572.00
2022-11-09T03:58:23.936Z,100569.00
2022-11-09T04:01:01.427Z,100567.00
2022-11-09T04:03:42.457Z,100570.00
2022-11-09T04:06:15.842Z,100566.00
2022-11-09T04:08:51.772Z,100563.00
2022-11-09T04:12:00.794Z,100563.00
2022-11-09T04:14:20.207Z,100564.00
2022-11-09T04:16:59.796Z,100569.00
2022-11-09T04:22:44.103Z,100575.00
2022-11-09T04:25:26.999Z,100575.00
2022-11-09T04:28:23.125Z,100578.00
2022-11-09T04:30:58.921Z,100586.00
2022-11-09T04:36:41.619Z,100580.00
2022-11-09T04:39:21.241Z,100588.00
2022-11-09T04:41:59.370Z,100581.00
2022-11-09T04:44:34.183Z,100571.00
2022-11-09T04:47:09.719Z,100580.00
2022-11-09T04:49:42.513Z,100579.00
2022-11-09T04:52:15.578Z,100590.00
2022-11-09T04:54:48.616Z,100593.00
2022-11-09T05:00:13.324Z,100587.00
2022-11-09T05:02:51.274Z,100580.00
2022-11-09T05:05:33.875Z,100589.00
2022-11-09T05:08:21.759Z,100580.00
2022-11-09T05:14:07.522Z,100586.00
2022-11-09T05:16:43.430Z,100583.00
2022-11-09T05:19:22.786Z,100587.00
2022-11-09T05:22:07.659Z,100577.00
2022-11-09T05:24:46.772Z,100589.00
2022-11-09T05:27:30.657Z,100595.00
2022-11-09T05:32:48.477Z,100597.00
2022-11-09T05:35:25.033Z,100589.00
2022-11-09T05:44:11.694Z,100606.00
2022-11-09T05:46:56.834Z,100603.00
2022-11-09T05:49:41.713Z,100612.00
2022-11-09T05:55:28.530Z,100608.00
2022-11-09T05:58:00.149Z,100614.00
2022-11-09T06:00:54.375Z,100617.00
2022-11-09T06:09:39.437Z,100612.00
2022-11-09T06:12:20.742Z,100611.00
2022-11-09T06:15:01.353Z,100619.00
2022-11-09T06:23:14.858Z,100625.00
2022-11-09T06:29:11.342Z,100620.00
2022-11-09T06:35:04.860Z,100632.00
2022-11-09T06:40:43.894Z,100642.00
2022-11-09T06:53:27.226Z,100646.00
2022-11-09T06:55:50.681Z,100649.00
2022-11-09T07:24:07.298Z,100699.00
2022-11-09T07:29:55.508Z,100699.00
2022-11-09T07:38:56.524Z,100717.00
2022-11-09T07:54:35.872Z,100730.00
2022-11-09T08:22:26.441Z,100760.00
2022-11-09T08:25:09.526Z,100767.00
2022-11-09T08:52:44.199Z,100804.00
2022-11-09T09:02:30.702Z,100801.00
2022-11-09T09:05:49.407Z,100812.00
2022-11-09T09:18:17.082Z,100816.00
2022-11-09T09:43:43.206Z,100829.00
2022-11-09T09:46:40.258Z,100835.00
2022-11-09T09:59:16.598Z,100837.00
2022-11-09T11:23:14.094Z,100814.00
2022-11-09T12:04:07.534Z,100838.00
2022-11-09T12:40:15.079Z,100825.00
2022-11-09T12:41:38.899Z,100823.00
2022-11-09T12:44:27.971Z,100823.00
2022-11-09T12:47:02.503Z,100815.00
2022-11-09T12:49:44.090Z,100814.00
2022-11-09T12:52:23.042Z,100808.00
2022-11-09T12:55:03.782Z,100805.00
2022-11-09T12:57:41.966Z,100803.00
2022-11-09T13:12:52.332Z,100802.00
2022-11-09T13:15:36.650Z,100803.00
2022-11-09T13:18:27.995Z,100805.00
2022-11-09T13:21:03.067Z,100805.00
2022-11-09T13:26:14.499Z,100805.00
2022-11-09T13:28:48.736Z,100816.00
2022-11-09T13:31:23.562Z,100813.00
2022-11-09T13:33:58.365Z,100816.00
2022-11-09T13:36:31.427Z,100816.00
2022-11-09T13:39:26.863Z,100828.00
2022-11-09T13:41:59.739Z,100814.00
2022-11-09T13:44:37.555Z,100819.00
2022-11-09T13:47:08.536Z,100820.00
2022-11-09T13:49:52.545Z,100808.00
2022-11-09T13:52:51.549Z,100811.00
2022-11-09T13:55:28.937Z,100814.00
2022-11-09T13:58:03.666Z,100827.00
2022-11-09T14:00:36.666Z,100823.00
2022-11-09T14:03:27.034Z,100829.00
2022-11-09T14:06:04.998Z,100846.00
2022-11-09T14:08:40.671Z,100854.00
2022-11-09T14:11:36.120Z,100858.00
2022-11-09T14:14:27.330Z,100854.00
2022-11-09T14:17:20.877Z,100847.00
2022-11-09T14:20:12.068Z,100860.00
2022-11-09T14:22:45.384Z,100861.00
2022-11-09T14:25:20.429Z,100852.00
2022-11-09T14:27:55.298Z,100844.00
2022-11-09T14:30:30.182Z,100835.00
2022-11-09T14:33:03.627Z,100838.00
2022-11-09T14:35:41.146Z,100839.00
2022-11-09T14:38:30.694Z,100833.00
2022-11-09T14:41:03.652Z,100837.00
2022-11-09T14:43:47.684Z,100833.00
2022-11-09T14:46:22.903Z,100821.00
2022-11-09T14:48:57.342Z,100831.00
2022-11-09T14:51:38.664Z,100837.00
2022-11-09T14:54:13.351Z,100848.00
2022-11-09T14:56:47.059Z,100847.00
2022-11-09T14:59:27.661Z,100837.00
2022-11-09T15:02:08.660Z,100839.00
2022-11-09T15:05:03.391Z,100844.00
2022-11-09T15:07:37.822Z,100856.00
2022-11-09T15:10:12.875Z,100845.00
2022-11-09T15:12:47.682Z,100831.00
2022-11-09T15:15:25.543Z,100831.00
2022-11-09T15:17:58.865Z,100829.00
2022-11-09T15:20:35.028Z,100828.00
2022-11-09T15:23:13.450Z,100834.00
2022-11-09T15:25:51.551Z,100844.00
2022-11-09T15:28:32.949Z,100838.00
2022-11-09T15:31:08.171Z,100835.00
2022-11-09T15:33:55.280Z,100832.00
2022-11-09T15:36:32.544Z,100836.00
2022-11-09T15:39:22.350Z,100839.00
2022-11-09T15:41:55.556Z,100825.00
2022-11-09T15:44:28.589Z,100836.00
2022-11-09T15:47:02.594Z,100833.00
2022-11-09T15:49:35.768Z,100835.00
2022-11-09T15:52:09.144Z,100832.00
2022-11-09T15:54:46.524Z,100833.00
2022-11-09T15:57:18.031Z,100833.00
2022-11-09T15:59:52.609Z,100839.00
2022-11-09T16:02:25.945Z,100847.00
2022-11-09T16:04:59.014Z,100844.00
2022-11-09T16:07:32.186Z,100838.00
2022-11-09T16:10:05.373Z,100849.00
2022-11-09T16:12:42.519Z,100849.00
2022-11-09T16:15:13.906Z,100856.00
2022-11-09T16:17:49.453Z,100862.00
2022-11-09T16:20:23.357Z,100858.00
2022-11-09T16:22:56.185Z,100855.00
2022-11-09T16:25:29.140Z,100866.00
2022-11-09T16:28:02.962Z,100866.00
2022-11-09T16:30:35.921Z,100867.00
2022-11-09T16:33:08.918Z,100873.00
2022-11-09T16:35:41.761Z,100873.00
2022-11-09T16:38:14.792Z,100868.00
2022-11-09T16:40:48.558Z,100861.00
2022-11-09T16:43:21.788Z,100866.00
2022-11-09T16:45:55.405Z,100868.00
2022-11-09T16:48:28.344Z,100870.00
2022-11-09T16:51:01.311Z,100883.00
2022-11-09T16:53:34.245Z,100896.00
2022-11-09T16:56:07.344Z,100891.00
2022-11-09T16:58:40.507Z,100891.00
2022-11-09T17:01:16.383Z,100879.00
2022-11-09T17:03:48.689Z,100878.00
2022-11-09T17:06:21.631Z,100878.00
2022-11-09T17:08:55.668Z,100879.00
2022-11-09T17:11:28.607Z,100882.00
2022-11-09T17:14:03.360Z,100882.00
2022-11-09T17:16:36.653Z,100879.00
2022-11-09T17:19:09.635Z,100889.00
2022-11-09T17:21:42.611Z,100896.00
2022-11-09T17:24:15.636Z,100901.00
2022-11-09T17:26:48.364Z,100899.00
2022-11-09T17:29:21.482Z,100904.00
2022-11-09T17:31:54.599Z,100908.00
2022-11-09T17:34:27.575Z,100900.00
2022-11-09T17:37:05.162Z,100913.00
2022-11-09T17:39:35.140Z,100909.00
2022-11-09T17:42:08.439Z,100919.00
2022-11-09T17:44:41.452Z,100922.00
2022-11-09T17:47:14.667Z,100925.00
2022-11-09T17:49:47.836Z,100926.00
2022-11-09T17:52:21.228Z,100929.00
2022-11-09T17:54:58.815Z,100942.00
2022-11-09T17:57:32.221Z,100948.00
2022-11-09T18:00:05.194Z,100957.00
2022-11-09T18:02:38.032Z,100962.00
2022-11-09T18:05:12.885Z,100974.00
2022-11-09T18:07:45.946Z,100978.00
2022-11-09T18:10:19.075Z,100978.00
2022-11-09T18:12:52.156Z,100972.00
2022-11-09T18:15:27.468Z,100978.00
2022-11-09T18:18:00.757Z,100985.00
2022-11-09T18:20:33.694Z,100985.00
2022-11-09T18:23:06.758Z,100996.00
2022-11-09T18:25:40.059Z,100990.00
2022-11-09T18:28:15.433Z,100986.00
2022-11-09T18:30:48.444Z,100987.00
2022-11-09T18:33:22.619Z,100999.00
2022-11-09T18:36:03.150Z,100996.00
2022-11-09T18:38:40.635Z,100985.00
2022-11-09T18:41:19.830Z,100992.00
2022-11-09T18:43:53.266Z,100991.00
2022-11-09T18:46:27.087Z,100984.00
2022-11-09T18:49:00.019Z,100981.00
2022-11-09T18:51:34.219Z,100987.00
2022-11-09T18:54:08.875Z,101000.00
2022-11-09T19:02:30.013Z,100995.00
2022-11-09T19:11:43.993Z,101019.00
2022-11-09T19:15:13.056Z,101015.00
2022-11-09T19:17:32.002Z,101037.00
2022-11-09T19:20:03.146Z,101045.00
2022-11-09T19:22:37.524Z,101042.00
2022-11-09T19:25:11.250Z,101048.00
2022-11-09T19:27:44.086Z,101059.00
2022-11-09T19:30:18.553Z,101063.00
2022-11-09T19:32:51.599Z,101069.00
2022-11-09T19:35:28.412Z,101058.00
2022-11-09T19:38:05.128Z,101049.00
2022-11-09T19:40:39.349Z,101057.00
2022-11-09T19:43:12.622Z,101062.00
2022-11-09T19:45:46.620Z,101072.00
2022-11-09T19:48:19.812Z,101076.00
2022-11-09T19:50:58.769Z,101078.00
2022-11-09T19:53:32.321Z,101071.00
2022-11-09T19:56:10.208Z,101082.00
2022-11-09T19:58:43.854Z,101087.00
2022-11-09T20:01:21.221Z,101084.00
2022-11-09T20:03:58.124Z,101090.00
2022-11-09T20:06:32.331Z,101086.00
2022-11-09T20:09:05.290Z,101110.00
2022-11-09T20:11:55.913Z,101110.00
2022-11-09T20:14:30.451Z,101112.00
2022-11-09T20:17:03.924Z,101114.00
2022-11-09T20:19:36.907Z,101111.00
2022-11-09T20:22:10.342Z,101122.00
2022-11-09T20:24:46.608Z,101114.00
2022-11-09T20:27:19.625Z,101115.00
2022-11-09T20:29:52.918Z,101108.00
2022-11-09T20:32:29.024Z,101118.00
2022-11-09T20:35:02.257Z,101124.00
2022-11-09T20:37:35.294Z,101112.00
2022-11-09T20:40:10.537Z,101110.00
2022-11-09T20:42:59.906Z,101110.00
2022-11-09T20:45:30.862Z,101114.00
2022-11-09T20:48:38.284Z,101112.00
2022-11-09T20:50:38.376Z,101112.00
2022-11-09T20:53:11.367Z,101112.00
2022-11-09T20:55:48.169Z,101124.00
2022-11-09T20:58:21.268Z,101108.00
2022-11-09T21:01:08.599Z,101118.00
2022-11-09T21:03:41.753Z,101128.00
2022-11-09T21:06:15.721Z,101127.00
2022-11-09T21:08:52.939Z,101129.00
2022-11-09T21:11:26.211Z,101118.00
2022-11-09T21:13:59.551Z,101117.00
2022-11-09T21:16:32.626Z,101124.00
2022-11-09T21:19:05.452Z,101126.00
2022-11-09T21:21:38.503Z,101137.00
2022-11-09T21:24:32.602Z,101136.00
2022-11-09T21:27:22.947Z,101140.00
2022-11-09T21:29:56.167Z,101157.00
2022-11-09T21:32:29.031Z,101147.00
2022-11-09T21:35:02.095Z,101151.00
2022-11-09T21:37:37.191Z,101151.00
2022-11-09T21:40:10.129Z,101162.00
2022-11-09T21:42:43.094Z,101168.00
2022-11-09T21:45:16.121Z,101169.00
2022-11-09T21:47:49.280Z,101163.00
2022-11-09T21:50:43.921Z,101177.00
2022-11-09T21:53:17.289Z,101172.00
2022-11-09T21:55:50.607Z,101177.00
2022-11-09T21:58:24.695Z,101179.00
2022-11-09T22:00:57.942Z,101186.00
2022-11-09T22:03:30.749Z,101191.00
2022-11-09T22:06:03.722Z,101183.00
2022-11-09T22:08:36.654Z,101195.00
2022-11-09T22:11:14.600Z,101194.00
2022-11-09T22:14:04.931Z,101210.00
2022-11-09T22:16:38.398Z,101199.00
2022-11-09T22:19:33.360Z,101204.00
2022-11-09T22:22:06.202Z,101200.00
2022-11-09T22:24:39.118Z,101205.00
2022-11-09T22:27:12.031Z,101204.00
2022-11-09T22:29:45.030Z,101211.00
2022-11-09T22:32:17.981Z,101225.00
2022-11-09T22:34:50.977Z,101223.00
2022-11-09T22:37:23.910Z,101219.00
2022-11-09T22:39:56.978Z,101218.00
2022-11-09T22:42:30.260Z,101229.00
2022-11-09T22:45:03.009Z,101214.00
2022-11-09T22:47:35.939Z,101220.00
2022-11-09T22:50:09.451Z,101225.00
2022-11-09T22:52:42.344Z,101219.00
2022-11-09T22:55:15.412Z,101222.00
2022-11-09T22:57:56.740Z,101216.00
2022-11-09T23:00:30.067Z,101213.00
2022-11-09T23:03:10.331Z,101217.00
2022-11-09T23:05:43.372Z,101215.00
2022-11-09T23:08:17.656Z,101212.00
2022-11-09T23:10:52.226Z,101217.00
2022-11-09T23:13:26.440Z,101203.00
2022-11-09T23:16:04.756Z,101208.00
2022-11-09T23:18:55.340Z,101204.00
2022-11-09T23:21:30.343Z,101209.00
2022-11-09T23:24:04.867Z,101215.00
2022-11-09T23:26:39.696Z,101217.00
2022-11-09T23:29:12.610Z,101206.00
2022-11-09T23:31:48.064Z,101203.00
2022-11-09T23:34:21.078Z,101208.00
2022-11-09T23:36:55.297Z,101205.00
2022-11-09T23:39:28.171Z,101204.00
2022-11-09T23:42:01.128Z,101195.00
2022-11-09T23:44:39.760Z,101207.00
2022-11-09T23:47:12.767Z,101195.00
2022-11-09T23:49:48.821Z,101205.00
2022-11-09T23:52:42.089Z,101204.00
2022-11-09T23:55:20.908Z,101201.00
2022-11-09T23:57:54.423Z,101213.00
